createdAt,value
2023-03-17T00:01:09.729Z,9.80
2023-03-17T00:03:40.309Z,9.74
2023-03-17T00:06:14.732Z,9.67
2023-03-17T00:08:41.355Z,9.73
2023-03-17T00:11:13.749Z,9.67
2023-03-17T00:13:41.773Z,9.56
2023-03-17T00:16:16.599Z,9.48
2023-03-17T00:18:43.731Z,9.56
2023-03-17T00:21:15.095Z,9.59
2023-03-17T00:23:49.716Z,9.56
2023-03-17T00:26:16.399Z,9.47
2023-03-17T00:28:43.039Z,9.48
2023-03-17T00:31:18.211Z,9.53
2023-03-17T00:33:46.516Z,9.49
2023-03-17T00:36:22.595Z,9.43
2023-03-17T00:38:49.741Z,9.40
2023-03-17T00:41:16.415Z,9.44
2023-03-17T00:43:42.998Z,9.45
2023-03-17T00:46:14.709Z,9.41
2023-03-17T00:48:43.476Z,9.36
2023-03-17T00:51:10.659Z,9.28
2023-03-17T00:53:37.233Z,9.23
2023-03-17T00:56:04.440Z,9.24
2023-03-17T00:58:33.908Z,9.30
2023-03-17T01:01:01.537Z,9.30
2023-03-17T01:03:28.744Z,9.35
2023-03-17T01:05:58.502Z,9.30
2023-03-17T01:08:26.020Z,9.25
2023-03-17T01:10:52.934Z,9.28
2023-03-17T01:13:19.515Z,9.30
2023-03-17T01:15:48.778Z,9.34
2023-03-17T01:18:17.050Z,9.43
2023-03-17T01:20:43.948Z,9.38
2023-03-17T01:23:12.278Z,9.39
2023-03-17T01:25:41.456Z,9.39
2023-03-17T01:28:10.657Z,9.32
2023-03-17T01:30:39.265Z,9.26
2023-03-17T01:33:10.746Z,9.18
2023-03-17T01:35:38.306Z,9.22
2023-03-17T01:38:06.137Z,9.16
2023-03-17T01:40:36.122Z,9.11
2023-03-17T01:43:17.504Z,9.09
2023-03-17T01:46:14.802Z,9.04
2023-03-17T01:49:06.688Z,9.03
2023-03-17T01:51:38.995Z,8.97
2023-03-17T01:54:10.668Z,8.93
2023-03-17T01:56:40.826Z,8.94
2023-03-17T01:59:10.043Z,8.87
2023-03-17T02:01:46.022Z,8.85
2023-03-17T02:04:12.963Z,8.84
2023-03-17T02:06:55.052Z,8.87
2023-03-17T02:09:23.733Z,8.89
2023-03-17T02:11:50.716Z,8.80
2023-03-17T02:14:17.842Z,8.78
2023-03-17T02:16:45.268Z,8.71
2023-03-17T02:19:12.699Z,8.74
2023-03-17T02:21:39.158Z,8.82
2023-03-17T02:24:10.789Z,8.72
2023-03-17T02:26:38.663Z,8.71
2023-03-17T02:29:06.581Z,8.72
2023-03-17T02:31:33.590Z,8.77
2023-03-17T02:34:00.511Z,8.77
2023-03-17T02:36:27.497Z,8.72
2023-03-17T02:38:54.106Z,8.69
2023-03-17T02:41:20.636Z,8.68
2023-03-17T02:43:47.653Z,8.69
2023-03-17T02:46:14.257Z,8.67
2023-03-17T02:48:41.230Z,8.77
2023-03-17T02:51:07.781Z,8.79
2023-03-17T02:53:34.445Z,8.75
2023-03-17T02:56:00.935Z,8.79
2023-03-17T02:58:27.607Z,8.83
2023-03-17T03:00:54.456Z,8.78
2023-03-17T03:03:21.203Z,8.78
2023-03-17T03:05:47.813Z,8.76
2023-03-17T03:08:14.557Z,8.82
2023-03-17T03:10:41.787Z,8.79
2023-03-17T03:13:08.311Z,8.80
2023-03-17T03:15:35.793Z,8.77
2023-03-17T03:18:02.340Z,8.85
2023-03-17T03:20:29.410Z,8.88
2023-03-17T03:22:56.257Z,8.91
2023-03-17T03:25:22.731Z,8.90
2023-03-17T03:27:49.457Z,8.84
2023-03-17T03:30:16.028Z,8.84
2023-03-17T03:32:42.750Z,8.84
2023-03-17T03:35:10.452Z,8.88
2023-03-17T03:37:37.010Z,8.92
2023-03-17T03:40:04.193Z,8.88
2023-03-17T03:42:30.695Z,8.90
2023-03-17T03:44:57.186Z,8.91
2023-03-17T03:47:23.612Z,8.91
2023-03-17T03:49:50.095Z,8.88
2023-03-17T03:52:16.682Z,8.84
2023-03-17T03:54:43.220Z,8.84
2023-03-17T03:57:09.750Z,8.88
2023-03-17T03:59:36.504Z,8.83
2023-03-17T04:02:03.163Z,8.88
2023-03-17T04:04:29.755Z,8.87
2023-03-17T04:06:56.249Z,8.89
2023-03-17T04:09:22.755Z,8.86
2023-03-17T04:11:49.215Z,8.84
2023-03-17T04:14:15.736Z,8.83
2023-03-17T04:16:43.586Z,8.77
2023-03-17T04:19:11.220Z,8.70
2023-03-17T04:21:37.774Z,8.69
2023-03-17T04:24:05.178Z,8.64
2023-03-17T04:26:32.411Z,8.63
2023-03-17T04:28:58.992Z,8.66
2023-03-17T04:31:25.881Z,8.70
2023-03-17T04:33:52.535Z,8.71
2023-03-17T04:36:20.891Z,8.71
2023-03-17T04:38:47.920Z,8.70
2023-03-17T04:41:15.354Z,8.72
2023-03-17T04:43:42.023Z,8.69
2023-03-17T04:46:09.536Z,8.66
2023-03-17T04:48:36.452Z,8.66
2023-03-17T04:51:03.069Z,8.65
2023-03-17T04:53:29.631Z,8.59
2023-03-17T04:55:56.635Z,8.58
2023-03-17T04:58:30.527Z,8.63
2023-03-17T05:00:57.974Z,8.57
2023-03-17T05:03:27.648Z,8.59
2023-03-17T05:05:54.811Z,8.57
2023-03-17T05:08:21.359Z,8.53
2023-03-17T05:10:47.842Z,8.49
2023-03-17T05:13:14.370Z,8.44
2023-03-17T05:15:41.017Z,8.40
2023-03-17T05:18:08.237Z,8.46
2023-03-17T05:20:34.692Z,8.51
2023-03-17T05:23:01.301Z,8.53
2023-03-17T05:25:27.851Z,8.61
2023-03-17T05:27:54.316Z,8.58
2023-03-17T05:30:20.799Z,8.59
2023-03-17T05:32:47.264Z,8.48
2023-03-17T05:35:13.817Z,8.47
2023-03-17T05:37:40.299Z,8.46
2023-03-17T05:40:08.331Z,8.48
2023-03-17T05:42:34.935Z,8.54
2023-03-17T05:45:02.695Z,8.55
2023-03-17T05:47:29.172Z,8.52
2023-03-17T05:49:56.071Z,8.51
2023-03-17T05:52:22.660Z,8.58
2023-03-17T05:54:49.226Z,8.50
2023-03-17T05:57:16.250Z,8.59
2023-03-17T05:59:42.782Z,8.67
2023-03-17T06:02:11.317Z,8.72
2023-03-17T06:04:38.596Z,8.69
2023-03-17T06:07:06.129Z,8.69
2023-03-17T06:09:33.443Z,8.74
2023-03-17T06:12:00.529Z,8.76
2023-03-17T06:14:27.326Z,8.72
2023-03-17T06:16:54.313Z,8.62
2023-03-17T06:19:20.988Z,8.59
2023-03-17T06:21:47.430Z,8.61
2023-03-17T06:24:14.089Z,8.60
2023-03-17T06:26:41.132Z,8.63
2023-03-17T06:29:09.715Z,8.69
2023-03-17T06:31:37.252Z,8.66
2023-03-17T06:34:04.024Z,8.69
2023-03-17T06:36:37.543Z,8.68
2023-03-17T06:39:05.128Z,8.72
2023-03-17T06:41:31.802Z,8.75
2023-03-17T06:43:58.266Z,8.69
2023-03-17T06:46:24.763Z,8.78
2023-03-17T06:48:51.293Z,8.85
2023-03-17T06:51:17.714Z,8.86
2023-03-17T06:53:44.238Z,8.90
2023-03-17T06:56:23.512Z,8.93
2023-03-17T06:58:55.475Z,8.96
2023-03-17T07:01:22.426Z,9.01
2023-03-17T07:03:48.921Z,8.95
2023-03-17T07:06:15.382Z,9.01
2023-03-17T07:08:42.056Z,9.12
2023-03-17T07:11:09.364Z,9.19
2023-03-17T07:13:37.303Z,9.28
2023-03-17T07:16:04.140Z,9.36
2023-03-17T07:18:32.134Z,9.38
2023-03-17T07:21:04.731Z,9.47
2023-03-17T07:23:31.417Z,9.58
2023-03-17T07:25:58.027Z,9.62
2023-03-17T07:28:24.608Z,9.68
2023-03-17T07:30:51.388Z,9.72
2023-03-17T07:33:22.509Z,9.79
2023-03-17T07:35:49.734Z,9.86
2023-03-17T07:38:17.869Z,9.92
2023-03-17T07:40:47.717Z,9.91
2023-03-17T07:43:15.242Z,9.98
2023-03-17T07:45:42.682Z,10.11
2023-03-17T07:48:09.648Z,10.15
2023-03-17T07:50:37.106Z,10.26
2023-03-17T07:53:04.653Z,10.26
2023-03-17T07:55:32.687Z,10.34
2023-03-17T07:57:59.624Z,10.39
2023-03-17T08:00:27.862Z,10.53
2023-03-17T08:03:09.032Z,10.58
2023-03-17T08:05:36.584Z,10.75
2023-03-17T08:08:03.096Z,10.89
2023-03-17T08:10:30.258Z,10.87
2023-03-17T08:12:57.086Z,10.92
2023-03-17T08:15:23.573Z,11.03
2023-03-17T08:17:50.354Z,11.05
2023-03-17T08:20:17.068Z,11.15
2023-03-17T08:22:44.106Z,11.22
2023-03-17T08:25:11.723Z,11.28
2023-03-17T08:27:38.658Z,11.45
2023-03-17T08:30:05.786Z,11.72
2023-03-17T08:32:32.351Z,11.89
2023-03-17T08:34:58.906Z,12.02
2023-03-17T08:37:26.016Z,12.15
2023-03-17T08:39:52.503Z,12.31
2023-03-17T08:42:18.936Z,12.39
2023-03-17T08:44:45.786Z,12.43
2023-03-17T08:47:12.289Z,12.50
2023-03-17T08:49:38.804Z,12.58
2023-03-17T08:52:05.374Z,12.68
2023-03-17T08:54:32.186Z,12.71
2023-03-17T08:56:58.766Z,12.81
2023-03-17T08:59:25.263Z,12.98
2023-03-17T09:01:51.808Z,13.03
2023-03-17T09:04:18.391Z,13.05
2023-03-17T09:07:01.932Z,12.92
2023-03-17T09:09:31.047Z,12.92
2023-03-17T09:11:57.627Z,12.98
2023-03-17T09:14:24.838Z,13.18
2023-03-17T09:16:52.257Z,13.35
2023-03-17T09:19:18.793Z,13.35
2023-03-17T09:21:45.347Z,13.25
2023-03-17T09:24:12.489Z,13.17
2023-03-17T09:26:38.962Z,13.21
2023-03-17T09:29:07.200Z,13.22
2023-03-17T09:31:36.400Z,13.22
2023-03-17T09:34:06.225Z,13.23
2023-03-17T09:36:36.118Z,13.30
2023-03-17T09:39:02.880Z,13.32
2023-03-17T09:41:59.838Z,13.30
2023-03-17T09:44:26.325Z,13.23
2023-03-17T09:47:22.635Z,13.41
2023-03-17T09:49:58.399Z,13.60
2023-03-17T09:52:29.093Z,13.37
2023-03-17T09:54:57.058Z,13.29
2023-03-17T09:57:35.504Z,13.23
2023-03-17T10:00:12.049Z,13.12
2023-03-17T10:02:38.608Z,13.17
2023-03-17T10:05:14.114Z,13.17
2023-03-17T10:08:22.806Z,13.34
2023-03-17T10:11:09.533Z,13.55
2023-03-17T10:13:57.958Z,13.66
2023-03-17T10:16:34.194Z,13.58
2023-03-17T10:19:08.995Z,13.66
2023-03-17T10:21:43.651Z,13.79
2023-03-17T10:24:11.398Z,13.88
2023-03-17T10:26:50.168Z,13.92
2023-03-17T10:29:22.447Z,13.88
2023-03-17T10:31:50.185Z,13.89
2023-03-17T10:34:23.772Z,13.94
2023-03-17T10:36:54.876Z,13.95
2023-03-17T10:39:24.510Z,14.05
2023-03-17T10:41:57.106Z,14.10
2023-03-17T10:45:04.106Z,14.29
2023-03-17T10:47:38.234Z,14.39
2023-03-17T10:50:17.836Z,14.41
2023-03-17T10:52:47.409Z,14.51
2023-03-17T10:55:21.335Z,14.70
2023-03-17T10:57:55.785Z,14.71
2023-03-17T11:00:23.202Z,14.75
2023-03-17T11:02:58.346Z,14.67
2023-03-17T11:05:28.972Z,14.67
2023-03-17T11:08:10.344Z,14.69
2023-03-17T11:10:39.123Z,14.68
2023-03-17T11:13:06.681Z,14.65
2023-03-17T11:15:49.749Z,14.67
2023-03-17T11:18:26.372Z,14.72
2023-03-17T11:21:12.127Z,14.79
2023-03-17T11:23:47.034Z,14.80
2023-03-17T11:26:55.233Z,14.76
2023-03-17T11:29:33.948Z,14.85
2023-03-17T11:32:03.358Z,14.91
2023-03-17T11:34:35.052Z,15.01
2023-03-17T11:37:24.648Z,15.18
2023-03-17T11:40:14.806Z,15.38
2023-03-17T11:43:18.900Z,15.65
2023-03-17T11:46:06.956Z,15.74
2023-03-17T11:48:56.343Z,15.89
2023-03-17T11:51:36.070Z,16.01
2023-03-17T11:54:19.514Z,15.99
2023-03-17T11:56:54.244Z,15.93
2023-03-17T11:59:29.924Z,15.97
2023-03-17T12:02:07.072Z,16.16
2023-03-17T12:04:43.338Z,16.28
2023-03-17T12:07:34.362Z,16.32
2023-03-17T12:10:13.515Z,16.38
2023-03-17T12:12:54.173Z,16.55
2023-03-17T12:15:30.859Z,16.68
2023-03-17T12:18:33.775Z,16.65
2023-03-17T12:21:08.948Z,16.66
2023-03-17T12:23:49.508Z,16.72
2023-03-17T12:26:19.637Z,16.74
2023-03-17T12:29:21.929Z,16.74
2023-03-17T12:31:56.176Z,16.82
2023-03-17T12:34:28.864Z,16.90
2023-03-17T12:36:56.138Z,16.97
2023-03-17T12:39:34.572Z,16.84
2023-03-17T12:42:16.383Z,16.89
2023-03-17T12:45:20.610Z,16.91
2023-03-17T12:48:22.811Z,16.80
2023-03-17T12:51:38.637Z,16.82
2023-03-17T12:54:11.942Z,17.03
2023-03-17T12:56:46.177Z,17.16
2023-03-17T12:59:19.134Z,17.31
2023-03-17T13:01:54.998Z,17.32
2023-03-17T13:04:27.374Z,17.38
2023-03-17T13:07:14.475Z,17.41
2023-03-17T13:09:46.920Z,17.44
2023-03-17T13:12:54.853Z,17.48
2023-03-17T13:15:38.116Z,17.36
2023-03-17T13:18:16.858Z,17.32
2023-03-17T13:21:10.318Z,17.35
2023-03-17T13:23:41.792Z,17.44
2023-03-17T13:26:12.245Z,17.59
2023-03-17T13:28:40.103Z,17.67
2023-03-17T13:31:16.410Z,17.87
2023-03-17T13:33:53.234Z,18.02
2023-03-17T13:36:30.247Z,18.20
2023-03-17T13:39:33.627Z,18.19
2023-03-17T13:42:18.011Z,18.25
2023-03-17T13:45:05.442Z,18.20
2023-03-17T13:47:39.032Z,18.02
2023-03-17T13:50:12.584Z,17.97
2023-03-17T13:53:02.337Z,17.96
2023-03-17T13:55:35.151Z,18.22
2023-03-17T13:58:11.979Z,18.47
2023-03-17T14:00:41.446Z,18.65
2023-03-17T14:03:16.326Z,18.57
2023-03-17T14:05:46.407Z,18.48
2023-03-17T14:08:27.779Z,18.38
2023-03-17T14:11:01.735Z,18.25
2023-03-17T14:13:42.014Z,18.28
2023-03-17T14:16:24.228Z,18.40
2023-03-17T14:19:21.819Z,18.62
2023-03-17T14:21:48.592Z,18.72
2023-03-17T14:24:32.013Z,18.65
2023-03-17T14:27:07.684Z,18.61
2023-03-17T14:29:34.633Z,18.56
2023-03-17T14:32:07.162Z,18.58
2023-03-17T14:34:33.845Z,18.71
2023-03-17T14:37:04.818Z,18.77
2023-03-17T14:39:31.805Z,18.89
2023-03-17T14:42:04.347Z,18.95
2023-03-17T14:44:42.736Z,18.93
2023-03-17T14:47:19.431Z,18.94
2023-03-17T14:49:46.256Z,19.12
2023-03-17T14:52:18.923Z,19.18
2023-03-17T14:54:49.030Z,19.28
2023-03-17T14:57:16.404Z,19.35
2023-03-17T14:59:57.978Z,19.27
2023-03-17T15:02:35.613Z,19.30
2023-03-17T15:05:29.166Z,19.32
2023-03-17T15:07:56.500Z,19.32
2023-03-17T15:10:28.735Z,19.33
2023-03-17T15:13:03.628Z,19.36
2023-03-17T15:15:36.060Z,19.37
2023-03-17T15:18:13.015Z,19.53
2023-03-17T15:20:42.352Z,19.86
2023-03-17T15:23:20.696Z,20.35
2023-03-17T15:25:55.683Z,20.80
2023-03-17T15:28:33.170Z,20.82
2023-03-17T15:31:11.948Z,20.64
2023-03-17T15:33:41.183Z,20.34
2023-03-17T15:36:25.605Z,20.18
2023-03-17T15:38:57.697Z,20.09
2023-03-17T15:41:24.260Z,19.90
2023-03-17T15:43:50.836Z,19.77
2023-03-17T15:46:27.490Z,19.67
2023-03-17T15:48:54.109Z,19.59
2023-03-17T15:51:20.877Z,19.41
2023-03-17T15:53:47.390Z,19.31
2023-03-17T15:56:20.547Z,19.25
2023-03-17T15:58:49.150Z,19.16
2023-03-17T16:01:16.668Z,19.13
2023-03-17T16:03:45.432Z,19.13
2023-03-17T16:06:16.816Z,19.19
2023-03-17T16:08:43.921Z,19.34
2023-03-17T16:11:28.012Z,19.37
2023-03-17T16:13:56.337Z,19.37
2023-03-17T16:16:32.215Z,19.24
2023-03-17T16:18:59.049Z,19.12
2023-03-17T16:21:25.682Z,18.99
2023-03-17T16:23:52.508Z,18.83
2023-03-17T16:26:19.041Z,18.74
2023-03-17T16:28:47.574Z,18.63
2023-03-17T16:31:31.247Z,18.53
2023-03-17T16:33:58.094Z,18.44
2023-03-17T16:36:25.444Z,18.35
2023-03-17T16:38:52.181Z,18.24
2023-03-17T16:41:21.742Z,18.13
2023-03-17T16:43:51.575Z,18.07
2023-03-17T16:46:20.681Z,17.95
2023-03-17T16:48:48.615Z,17.88
2023-03-17T16:51:15.291Z,17.73
2023-03-17T16:53:41.819Z,17.70
2023-03-17T16:56:18.453Z,17.65
2023-03-17T16:58:45.913Z,17.52
2023-03-17T17:01:16.318Z,17.37
2023-03-17T17:03:43.410Z,17.26
2023-03-17T17:06:11.755Z,17.22
2023-03-17T17:08:38.234Z,17.26
2023-03-17T17:11:04.784Z,17.23
2023-03-17T17:13:31.312Z,17.22
2023-03-17T17:15:57.902Z,17.12
2023-03-17T17:18:27.276Z,17.06
2023-03-17T17:20:54.613Z,17.03
2023-03-17T17:23:25.959Z,17.03
2023-03-17T17:25:53.506Z,17.02
2023-03-17T17:28:22.698Z,16.95
2023-03-17T17:30:51.063Z,16.96
2023-03-17T17:33:19.334Z,16.92
2023-03-17T17:35:45.964Z,16.88
2023-03-17T17:38:28.132Z,16.85
2023-03-17T17:40:56.691Z,16.79
2023-03-17T17:43:24.817Z,16.72
2023-03-17T17:45:52.485Z,16.61
2023-03-17T17:48:22.755Z,16.52
2023-03-17T17:50:50.580Z,16.45
2023-03-17T17:53:18.049Z,16.38
2023-03-17T17:55:46.485Z,16.29
2023-03-17T17:58:15.753Z,16.23
2023-03-17T18:00:42.899Z,16.17
2023-03-17T18:03:09.953Z,16.13
2023-03-17T18:05:37.153Z,16.09
2023-03-17T18:08:04.631Z,16.09
2023-03-17T18:10:31.638Z,16.10
2023-03-17T18:12:58.406Z,16.10
2023-03-17T18:15:27.234Z,16.09
2023-03-17T18:17:54.316Z,16.09
2023-03-17T18:20:22.275Z,16.06
2023-03-17T18:22:49.666Z,16.00
2023-03-17T18:25:16.770Z,15.87
2023-03-17T18:27:43.930Z,15.69
2023-03-17T18:30:13.911Z,15.46
2023-03-17T18:32:42.901Z,15.37
2023-03-17T18:35:13.134Z,15.35
2023-03-17T18:37:39.856Z,15.36
2023-03-17T18:40:14.604Z,15.23
2023-03-17T18:42:42.903Z,15.10
2023-03-17T18:45:11.599Z,15.12
2023-03-17T18:47:39.009Z,15.22
2023-03-17T18:50:07.110Z,15.21
2023-03-17T18:52:35.068Z,15.20
2023-03-17T18:55:02.090Z,15.22
2023-03-17T18:57:28.695Z,15.25
2023-03-17T18:59:55.757Z,15.26
2023-03-17T19:02:22.718Z,15.31
2023-03-17T19:04:49.352Z,15.37
2023-03-17T19:07:16.462Z,15.35
2023-03-17T19:09:42.995Z,15.38
2023-03-17T19:12:09.819Z,15.37
2023-03-17T19:14:38.510Z,15.36
2023-03-17T19:17:06.262Z,15.33
2023-03-17T19:19:33.343Z,15.34
2023-03-17T19:22:00.368Z,15.30
2023-03-17T19:24:27.479Z,15.27
2023-03-17T19:26:53.942Z,15.24
2023-03-17T19:29:20.509Z,15.21
2023-03-17T19:31:48.599Z,15.17
2023-03-17T19:34:15.374Z,15.14
2023-03-17T19:36:45.802Z,15.11
2023-03-17T19:39:13.263Z,15.08
2023-03-17T19:41:39.794Z,15.09
2023-03-17T19:44:09.407Z,15.02
2023-03-17T19:46:36.983Z,14.97
2023-03-17T19:49:04.755Z,14.90
2023-03-17T19:51:32.867Z,14.87
2023-03-17T19:53:59.957Z,14.82
2023-03-17T19:56:27.856Z,14.84
2023-03-17T19:58:54.682Z,14.82
2023-03-17T20:01:22.144Z,14.81
2023-03-17T20:03:49.087Z,14.81
2023-03-17T20:06:16.115Z,14.80
2023-03-17T20:08:43.384Z,14.79
2023-03-17T20:11:11.908Z,14.75
2023-03-17T20:13:39.069Z,14.73
2023-03-17T20:16:06.409Z,14.69
2023-03-17T20:18:33.694Z,14.66
2023-03-17T20:21:01.573Z,14.69
2023-03-17T20:23:28.114Z,14.71
2023-03-17T20:25:54.663Z,14.71
2023-03-17T20:28:21.505Z,14.73
2023-03-17T20:30:49.376Z,14.70
2023-03-17T20:33:16.505Z,14.68
2023-03-17T20:35:46.818Z,14.66
2023-03-17T20:38:14.697Z,14.61
2023-03-17T20:40:42.238Z,14.57
2023-03-17T20:43:09.417Z,14.56
2023-03-17T20:45:36.957Z,14.55
2023-03-17T20:48:04.999Z,14.56
2023-03-17T20:50:32.751Z,14.58
2023-03-17T20:52:59.839Z,14.59
2023-03-17T20:55:26.327Z,14.52
2023-03-17T20:57:52.929Z,14.51
2023-03-17T21:00:21.252Z,14.46
2023-03-17T21:02:50.297Z,14.45
2023-03-17T21:05:20.170Z,14.44
2023-03-17T21:07:47.944Z,14.45
2023-03-17T21:10:14.795Z,14.44
2023-03-17T21:12:42.003Z,14.40
2023-03-17T21:15:09.991Z,14.37
2023-03-17T21:17:38.073Z,14.38
2023-03-17T21:20:06.945Z,14.35
2023-03-17T21:22:36.959Z,14.35
2023-03-17T21:25:05.183Z,14.28
2023-03-17T21:27:31.723Z,14.17
2023-03-17T21:29:58.474Z,14.24
2023-03-17T21:32:25.027Z,14.23
2023-03-17T21:34:51.601Z,14.26
2023-03-17T21:37:18.810Z,14.28
2023-03-17T21:39:45.851Z,14.27
2023-03-17T21:42:12.519Z,14.25
2023-03-17T21:44:39.809Z,14.21
2023-03-17T21:47:06.396Z,14.20
2023-03-17T21:49:32.855Z,14.20
2023-03-17T21:51:59.375Z,14.17
2023-03-17T21:54:25.915Z,14.15
2023-03-17T21:56:52.807Z,14.14
2023-03-17T21:59:20.901Z,14.11
2023-03-17T22:01:48.360Z,14.14
2023-03-17T22:04:15.596Z,14.16
2023-03-17T22:06:42.159Z,14.12
2023-03-17T22:09:10.907Z,14.05
2023-03-17T22:11:37.794Z,13.89
2023-03-17T22:14:04.263Z,13.85
2023-03-17T22:16:30.811Z,13.91
2023-03-17T22:18:57.403Z,13.91
2023-03-17T22:21:25.017Z,13.94
2023-03-17T22:23:51.731Z,13.92
2023-03-17T22:26:21.022Z,13.85
2023-03-17T22:28:48.948Z,13.81
2023-03-17T22:31:22.362Z,13.81
2023-03-17T22:33:55.005Z,13.77
2023-03-17T22:36:21.843Z,13.80
2023-03-17T22:38:48.761Z,13.76
2023-03-17T22:41:21.462Z,13.72
2023-03-17T22:43:48.186Z,13.70
2023-03-17T22:46:16.244Z,13.65
2023-03-17T22:48:43.176Z,13.61
2023-03-17T22:51:12.777Z,13.57
2023-03-17T22:53:40.353Z,13.57
2023-03-17T22:56:08.196Z,13.54
2023-03-17T22:58:35.140Z,13.48
2023-03-17T23:01:02.544Z,13.39
2023-03-17T23:03:29.923Z,13.36
2023-03-17T23:05:59.603Z,13.35
2023-03-17T23:08:27.869Z,13.31
2023-03-17T23:10:54.809Z,13.27
2023-03-17T23:13:22.313Z,13.26
2023-03-17T23:15:48.817Z,13.26
2023-03-17T23:18:15.615Z,13.24
2023-03-17T23:20:43.284Z,13.20
2023-03-17T23:23:11.468Z,13.18
2023-03-17T23:25:38.410Z,13.15
2023-03-17T23:28:06.712Z,13.17
2023-03-17T23:30:34.517Z,13.22
2023-03-17T23:33:01.854Z,13.24
2023-03-17T23:35:29.092Z,13.22
2023-03-17T23:37:55.535Z,13.19
2023-03-17T23:40:23.603Z,13.20
2023-03-17T23:42:50.360Z,13.28
2023-03-17T23:45:18.090Z,13.28
2023-03-17T23:47:46.640Z,13.23
2023-03-17T23:50:15.742Z,13.19
2023-03-17T23:52:43.222Z,13.17
2023-03-17T23:55:11.848Z,13.16
2023-03-17T23:57:39.000Z,13.14
